Andersonville, Tennessee
Current Conditions -  °F | °C
As of 3:53 AM on Monday 24 Nov 2014 (Local Time) from KOQT Reporting Station
Broken Clouds Broken Clouds  
Wind Chill: 62°   Ceiling: 4900
Heat Index: 62°   Visibility: 10mi
Dew Point: 54°   Wind: 10mph
Humidity: 75%   Direction: 200°SSW
Pressure: 29.62"   Gusts: 20mph
Location:  36.2°N, 84.04°W
Report Text: KOQT 240853Z AUTO 20009G17KT 160V230 10SM SCT024 BKN049 17/12 A2962 RMK AO2 SLP028 T01670122 50004
Loading
Personal Weather Stations






























Interactive Weather Map New forecast layout! Learn more

10-Day Weather Forecast

Advertisements
Track Severe Weather on mobile